createdAt,value
2022-10-25T00:01:23.980Z,100955.09
2022-10-25T00:03:50.391Z,100958.31
2022-10-25T00:06:17.006Z,100962.88
2022-10-25T00:08:43.413Z,100967.34
2022-10-25T00:11:13.112Z,100954.69
2022-10-25T00:13:39.564Z,100960.16
2022-10-25T00:16:05.977Z,100965.44
2022-10-25T00:18:32.308Z,100959.16
2022-10-25T00:23:35.005Z,100961.03
2022-10-25T00:26:05.505Z,100963.75
2022-10-25T00:28:32.141Z,100962.03
2022-10-25T00:31:02.490Z,100964.78
2022-10-25T00:33:30.079Z,100971.94
2022-10-25T00:35:56.500Z,100966.66
2022-10-25T00:38:23.100Z,100972.97
2022-10-25T00:40:49.582Z,100971.75
2022-10-25T00:43:34.551Z,100977.41
2022-10-25T00:46:03.462Z,100972.13
2022-10-25T00:48:30.052Z,100976.53
2022-10-25T00:50:57.280Z,100973.81
2022-10-25T00:53:26.937Z,100975.53
2022-10-25T00:56:03.539Z,100977.56
2022-10-25T00:58:31.383Z,100978.41
2022-10-25T01:00:58.146Z,100981.16
2022-10-25T01:03:25.127Z,100977.41
2022-10-25T01:05:51.740Z,100977.41
2022-10-25T01:08:19.678Z,100982.84
2022-10-25T01:10:47.426Z,100988.31
2022-10-25T01:13:13.994Z,100982.84
2022-10-25T01:15:59.273Z,100982.84
2022-10-25T01:18:35.846Z,100981.81
2022-10-25T01:21:05.184Z,100976.34
2022-10-25T01:23:44.641Z,100981.81
2022-10-25T01:26:26.158Z,100979.72
2022-10-25T01:28:58.580Z,100981.81
2022-10-25T01:31:29.195Z,100980.97
2022-10-25T01:33:57.844Z,100974.69
2022-10-25T01:36:24.177Z,100981.81
2022-10-25T01:39:05.975Z,100984.53
2022-10-25T01:41:41.253Z,100980.97
2022-10-25T01:44:24.909Z,100985.19
2022-10-25T01:47:05.173Z,100987.91
2022-10-25T01:49:37.404Z,100979.09
2022-10-25T01:52:03.973Z,100982.66
2022-10-25T01:54:30.380Z,100982.84
2022-10-25T01:56:59.716Z,100981.81
2022-10-25T01:59:52.638Z,100975.31
2022-10-25T02:02:32.939Z,100979.09
2022-10-25T02:05:15.021Z,100977.19
2022-10-25T02:07:56.577Z,100983.69
2022-10-25T02:10:31.432Z,100988.97
2022-10-25T02:13:00.820Z,100979.66
2022-10-25T02:15:34.491Z,100983.81
2022-10-25T02:18:03.024Z,100985.13
2022-10-25T02:20:31.727Z,100982.84
2022-10-25T02:23:01.036Z,100982.66
2022-10-25T02:25:29.228Z,100985.19
2022-10-25T02:27:57.288Z,100993.19
2022-10-25T02:30:23.690Z,100991.50
2022-10-25T02:32:50.329Z,100987.91
2022-10-25T02:35:18.327Z,100985.03
2022-10-25T02:37:44.878Z,100985.03
2022-10-25T02:40:12.167Z,100985.03
2022-10-25T02:42:38.517Z,100987.75
2022-10-25T02:45:05.104Z,100976.84
2022-10-25T02:47:31.425Z,100989.44
2022-10-25T02:49:58.032Z,100983.97
2022-10-25T02:52:24.423Z,100982.47
2022-10-25T02:54:50.754Z,100976.84
2022-10-25T02:57:18.097Z,100974.09
2022-10-25T02:59:44.417Z,100979.09
2022-10-25T03:02:10.822Z,100981.81
2022-10-25T03:04:37.224Z,100992.38
2022-10-25T03:07:03.660Z,100983.13
2022-10-25T03:09:30.130Z,100985.66
2022-10-25T03:11:56.494Z,100988.38
2022-10-25T03:14:22.873Z,100993.00
2022-10-25T03:16:49.225Z,100996.56
2022-10-25T03:19:15.561Z,100993.84
2022-10-25T03:21:42.082Z,100998.47
2022-10-25T03:24:08.593Z,100999.31
2022-10-25T03:26:34.988Z,101011.06
2022-10-25T03:29:01.401Z,101003.28
2022-10-25T03:31:27.762Z,101009.38
2022-10-25T03:33:54.186Z,101002.22
2022-10-25T03:36:20.569Z,101005.81
2022-10-25T03:38:46.890Z,100999.31
2022-10-25T03:41:13.248Z,101008.34
2022-10-25T03:43:39.578Z,101007.00
2022-10-25T03:46:06.288Z,101002.88
2022-10-25T03:48:32.677Z,101009.38
2022-10-25T03:50:59.077Z,101013.78
2022-10-25T03:53:25.623Z,101013.78
2022-10-25T03:55:51.956Z,101020.97
2022-10-25T03:58:19.721Z,101025.56
2022-10-25T04:00:46.160Z,101026.59
2022-10-25T04:03:12.526Z,101026.44
2022-10-25T04:05:38.898Z,101031.88
2022-10-25T04:08:05.473Z,101034.59
2022-10-25T04:10:31.891Z,101040.91
2022-10-25T04:12:58.854Z,101038.19
2022-10-25T04:15:25.646Z,101029.16
2022-10-25T04:17:52.619Z,101028.94
2022-10-25T04:20:19.700Z,101032.03
2022-10-25T04:22:46.135Z,101033.94
2022-10-25T04:25:12.484Z,101031.69
2022-10-25T04:27:39.155Z,101036.28
2022-10-25T04:30:05.672Z,101028.09
2022-10-25T04:32:32.001Z,101032.72
2022-10-25T04:34:58.380Z,101037.34
2022-10-25T04:37:24.764Z,101035.44
2022-10-25T04:39:51.179Z,101028.09
2022-10-25T04:42:19.312Z,101033.72
2022-10-25T04:44:45.746Z,101035.44
2022-10-25T04:47:12.162Z,101036.47
2022-10-25T04:49:38.669Z,101036.28
2022-10-25T04:52:05.140Z,101034.41
2022-10-25T04:54:31.470Z,101028.09
2022-10-25T04:56:57.883Z,101039.03
2022-10-25T04:59:24.762Z,101040.91
2022-10-25T05:04:18.412Z,101037.34
2022-10-25T05:06:44.744Z,101041.75
2022-10-25T05:09:11.155Z,101042.78
2022-10-25T05:14:08.941Z,101043.44
2022-10-25T05:16:35.436Z,101041.06
2022-10-25T05:19:01.932Z,101031.88
2022-10-25T05:21:30.656Z,101041.91
2022-10-25T05:24:01.450Z,101037.34
2022-10-25T05:26:29.079Z,101046.38
2022-10-25T05:28:55.654Z,101046.38
2022-10-25T05:31:23.706Z,101055.41
2022-10-25T05:33:51.444Z,101048.91
2022-10-25T05:36:17.819Z,101052.47
2022-10-25T05:38:44.282Z,101049.94
2022-10-25T05:41:11.952Z,101050.97
2022-10-25T05:43:38.725Z,101060.84
2022-10-25T05:46:09.485Z,101056.44
2022-10-25T05:48:36.751Z,101056.44
2022-10-25T05:51:21.256Z,101067.53
2022-10-25T05:53:56.764Z,101068.19
2022-10-25T05:56:25.598Z,101067.34
2022-10-25T05:58:52.492Z,101063.75
2022-10-25T06:01:20.350Z,101070.94
2022-10-25T06:03:50.764Z,101069.22
2022-10-25T06:06:17.652Z,101069.22
2022-10-25T06:08:44.046Z,101079.97
2022-10-25T06:11:14.886Z,101081.00
2022-10-25T06:13:41.571Z,101098.78
2022-10-25T06:16:10.082Z,101099.63
2022-10-25T06:18:38.742Z,101099.41
2022-10-25T06:21:06.653Z,101101.78
2022-10-25T06:23:34.579Z,101106.19
2022-10-25T06:26:01.804Z,101103.47
2022-10-25T06:28:28.991Z,101099.72
2022-10-25T06:31:00.224Z,101104.31
2022-10-25T06:33:28.034Z,101107.88
2022-10-25T06:35:55.373Z,101114.38
2022-10-25T06:38:21.746Z,101117.97
2022-10-25T06:40:48.205Z,101117.81
2022-10-25T06:43:14.651Z,101125.09
2022-10-25T06:45:41.325Z,101118.81
2022-10-25T06:48:07.715Z,101134.34
2022-10-25T06:50:34.069Z,101128.88
2022-10-25T06:53:00.442Z,101127.00
2022-10-25T06:55:26.764Z,101140.63
2022-10-25T06:57:56.027Z,101128.03
2022-10-25T07:00:22.580Z,101138.09
2022-10-25T07:02:59.117Z,101139.78
2022-10-25T07:05:26.464Z,101147.97
2022-10-25T07:07:53.606Z,101152.41
2022-10-25T07:10:20.043Z,101147.81
2022-10-25T07:12:46.542Z,101151.56
2022-10-25T07:15:13.002Z,101155.13
2022-10-25T07:17:39.415Z,101154.28
2022-10-25T07:20:06.162Z,101152.41
2022-10-25T07:22:33.110Z,101156.84
2022-10-25T07:24:59.589Z,101156.00
2022-10-25T07:27:26.078Z,101159.75
2022-10-25T07:29:52.433Z,101158.72
2022-10-25T07:32:19.005Z,101156.00
2022-10-25T07:37:10.579Z,101150.53
2022-10-25T07:39:37.013Z,101153.28
2022-10-25T07:42:03.479Z,101160.41
2022-10-25T07:44:29.889Z,101153.06
2022-10-25T07:46:56.347Z,101162.31
2022-10-25T07:49:22.733Z,101168.59
2022-10-25T07:51:49.584Z,101165.03
2022-10-25T07:54:16.007Z,101162.31
2022-10-25T07:56:42.599Z,101164.84
2022-10-25T07:59:09.028Z,101165.69
2022-10-25T08:01:36.696Z,101160.41
2022-10-25T08:04:03.528Z,101166.91
2022-10-25T08:06:30.221Z,101173.22
2022-10-25T08:08:58.243Z,101173.03
2022-10-25T08:11:26.666Z,101166.03
2022-10-25T08:13:53.313Z,101166.72
2022-10-25T08:16:19.894Z,101173.22
2022-10-25T08:18:46.377Z,101174.06
2022-10-25T08:21:12.854Z,101174.06
2022-10-25T08:23:39.337Z,101170.28
2022-10-25T08:26:05.842Z,101164.00
2022-10-25T08:28:32.247Z,101172.19
2022-10-25T08:31:00.786Z,101166.72
2022-10-25T08:33:27.782Z,101178.47
2022-10-25T08:35:54.165Z,101172.19
2022-10-25T08:38:20.612Z,101172.19
2022-10-25T08:40:51.452Z,101177.63
2022-10-25T08:43:31.968Z,101178.47
2022-10-25T08:46:01.128Z,101182.06
2022-10-25T08:48:30.763Z,101178.47
2022-10-25T08:51:00.833Z,101184.78
2022-10-25T08:53:34.629Z,101187.34
2022-10-25T08:56:17.649Z,101192.81
2022-10-25T08:58:55.107Z,101190.91
2022-10-25T09:01:54.352Z,101197.22
2022-10-25T09:04:21.664Z,101193.44
2022-10-25T09:07:08.082Z,101203.53
2022-10-25T09:09:50.134Z,101202.50
2022-10-25T09:12:16.618Z,101204.00
2022-10-25T09:14:48.469Z,101207.94
2022-10-25T09:17:22.682Z,101210.69
2022-10-25T09:20:14.618Z,101214.25
2022-10-25T09:22:49.027Z,101212.38
2022-10-25T09:25:26.701Z,101215.09
2022-10-25T09:28:00.719Z,101221.59
2022-10-25T09:30:39.652Z,101225.00
2022-10-25T09:33:10.608Z,101223.28
2022-10-25T09:35:49.261Z,101224.13
2022-10-25T09:38:18.806Z,101234.41
2022-10-25T09:40:50.948Z,101237.97
2022-10-25T09:43:21.803Z,101234.41
2022-10-25T09:45:50.618Z,101242.59
2022-10-25T09:48:27.601Z,101240.69
2022-10-25T09:50:57.643Z,101239.66
2022-10-25T09:53:24.175Z,101250.56
2022-10-25T09:56:01.372Z,101249.09
2022-10-25T09:58:32.479Z,101250.56
2022-10-25T10:01:04.178Z,101254.34
2022-10-25T10:03:32.391Z,101249.94
2022-10-25T10:06:00.631Z,101251.81
2022-10-25T10:08:27.266Z,101250.78
2022-10-25T10:10:54.257Z,101253.50
2022-10-25T10:13:46.828Z,101247.19
2022-10-25T10:16:16.283Z,101256.44
2022-10-25T10:18:43.710Z,101251.97
2022-10-25T10:21:10.052Z,101253.88
2022-10-25T10:23:45.764Z,101255.59
2022-10-25T10:26:20.890Z,101252.16
2022-10-25T10:28:49.165Z,101257.63
2022-10-25T10:31:16.564Z,101262.03
2022-10-25T10:33:48.089Z,101269.59
2022-10-25T10:36:25.957Z,101259.72
2022-10-25T10:38:52.766Z,101268.75
2022-10-25T10:41:26.724Z,101267.69
2022-10-25T10:44:07.636Z,101271.47
2022-10-25T10:46:34.087Z,101269.75
2022-10-25T10:49:02.109Z,101270.78
2022-10-25T10:51:44.119Z,101264.28
2022-10-25T10:54:14.296Z,101268.06
2022-10-25T10:56:40.762Z,101272.66
2022-10-25T10:59:24.565Z,101262.59
2022-10-25T11:01:51.052Z,101261.75
2022-10-25T11:04:17.579Z,101272.47
2022-10-25T11:06:45.094Z,101275.22
2022-10-25T11:09:12.407Z,101271.81
2022-10-25T11:11:39.667Z,101275.41
2022-10-25T11:14:13.741Z,101265.53
2022-10-25T11:16:43.334Z,101266.56
2022-10-25T11:19:15.808Z,101279.16
2022-10-25T11:21:45.472Z,101275.75
2022-10-25T11:24:23.254Z,101274.06
2022-10-25T11:27:00.768Z,101268.81
2022-10-25T11:29:36.524Z,101272.38
2022-10-25T11:32:02.872Z,101274.06
2022-10-25T11:34:35.407Z,101267.75
2022-10-25T11:37:14.177Z,101269.47
2022-10-25T11:39:48.557Z,101275.94
2022-10-25T11:42:36.470Z,101270.69
2022-10-25T11:45:18.556Z,101282.63
2022-10-25T11:48:03.741Z,101283.28
2022-10-25T11:50:43.187Z,101281.59
2022-10-25T11:53:10.216Z,101289.59
2022-10-25T11:55:36.560Z,101287.91
2022-10-25T11:58:09.120Z,101287.91
2022-10-25T12:00:59.832Z,101287.06
2022-10-25T12:03:45.349Z,101284.34
2022-10-25T12:06:11.787Z,101287.06
2022-10-25T12:08:55.667Z,101288.91
2022-10-25T12:11:31.738Z,101287.06
2022-10-25T12:14:00.472Z,101284.34
2022-10-25T12:16:28.455Z,101283.28
2022-10-25T12:19:01.112Z,101286.69
2022-10-25T12:21:30.928Z,101273.72
2022-10-25T12:23:57.621Z,101276.25
2022-10-25T12:26:24.075Z,101268.75
2022-10-25T12:28:52.263Z,101271.47
2022-10-25T12:31:28.978Z,101286.59
2022-10-25T12:33:59.839Z,101282.88
2022-10-25T12:36:35.967Z,101277.41
2022-10-25T12:39:04.425Z,101278.25
2022-10-25T12:41:34.462Z,101279.94
2022-10-25T12:44:12.954Z,101278.72
2022-10-25T12:46:57.785Z,101283.16
2022-10-25T12:49:27.307Z,101284.19
2022-10-25T12:52:12.514Z,101290.50
2022-10-25T12:54:41.955Z,101284.19
2022-10-25T12:57:19.528Z,101291.34
2022-10-25T12:59:45.873Z,101284.00
2022-10-25T13:02:38.486Z,101289.28
2022-10-25T13:05:04.903Z,101287.41
2022-10-25T13:07:33.559Z,101287.41
2022-10-25T13:10:09.018Z,101287.41
2022-10-25T13:12:35.610Z,101287.41
2022-10-25T13:15:02.490Z,101284.50
2022-10-25T13:17:41.305Z,101289.13
2022-10-25T13:20:20.099Z,101299.00
2022-10-25T13:22:46.519Z,101299.84
2022-10-25T13:25:15.000Z,101305.28
2022-10-25T13:28:00.347Z,101310.56
2022-10-25T13:33:12.095Z,101324.22
2022-10-25T13:35:38.424Z,101330.72
2022-10-25T13:38:08.868Z,101333.44
2022-10-25T13:40:37.626Z,101330.72
2022-10-25T13:43:05.304Z,101335.84
2022-10-25T13:48:07.831Z,101337.69
2022-10-25T13:50:42.175Z,101340.44
2022-10-25T13:53:08.592Z,101343.00
2022-10-25T13:55:37.010Z,101332.06
2022-10-25T13:58:24.762Z,101330.38
2022-10-25T14:00:53.732Z,101324.94
2022-10-25T14:03:31.809Z,101343.16
2022-10-25T14:05:58.287Z,101343.31
2022-10-25T14:10:52.097Z,101346.06
2022-10-25T14:13:27.591Z,101348.97
2022-10-25T14:15:58.490Z,101349.81
2022-10-25T14:18:25.889Z,101368.09
2022-10-25T14:20:55.137Z,101353.41
2022-10-25T14:23:23.009Z,101351.50
2022-10-25T14:25:51.217Z,101354.44
2022-10-25T14:28:21.839Z,101357.81
2022-10-25T14:30:58.332Z,101356.81
2022-10-25T14:33:32.457Z,101364.31
2022-10-25T14:36:05.250Z,101355.09
2022-10-25T14:38:32.447Z,101358.00
2022-10-25T14:40:59.992Z,101358.84
2022-10-25T14:43:26.449Z,101368.59
2022-10-25T14:46:14.812Z,101373.34
2022-10-25T14:48:42.291Z,101374.19
2022-10-25T14:51:21.686Z,101364.00
2022-10-25T14:53:55.832Z,101374.91
2022-10-25T14:56:28.025Z,101378.50
2022-10-25T14:58:55.238Z,101380.69
2022-10-25T15:03:50.317Z,101416.88
2022-10-25T15:08:47.941Z,101404.09
2022-10-25T15:11:19.091Z,101415.00
2022-10-25T15:13:46.791Z,101411.41
2022-10-25T15:21:10.812Z,101401.38
2022-10-25T15:23:38.476Z,101408.00
2022-10-25T15:26:23.633Z,101401.69
2022-10-25T15:28:51.411Z,101398.97
2022-10-25T15:33:48.292Z,101405.25
2022-10-25T15:36:24.551Z,101406.50
2022-10-25T15:39:14.312Z,101397.25
2022-10-25T15:41:40.428Z,101406.50
2022-10-25T15:44:06.945Z,101408.34
2022-10-25T15:46:34.589Z,101398.31
2022-10-25T15:49:03.447Z,101404.78
2022-10-25T15:51:32.136Z,101416.53
2022-10-25T15:53:58.713Z,101410.22
2022-10-25T15:56:25.046Z,101413.66
2022-10-25T15:58:51.495Z,101397.44
2022-10-25T16:01:18.249Z,101393.84
2022-10-25T16:03:44.843Z,101411.06
2022-10-25T16:06:14.247Z,101402.03
2022-10-25T16:08:41.012Z,101396.56
2022-10-25T16:11:11.785Z,101408.53
2022-10-25T16:13:38.737Z,101403.91
2022-10-25T16:16:21.976Z,101401.38
2022-10-25T16:18:53.810Z,101397.63
2022-10-25T16:21:21.457Z,101410.41
2022-10-25T16:23:48.370Z,101412.13
2022-10-25T16:26:29.389Z,101414.00
2022-10-25T16:28:55.753Z,101410.41
2022-10-25T16:31:22.208Z,101420.50
2022-10-25T16:33:48.536Z,101429.53
2022-10-25T16:36:15.243Z,101428.50
2022-10-25T16:38:41.657Z,101423.03
2022-10-25T16:41:21.088Z,101416.72
2022-10-25T16:43:49.176Z,101423.03
2022-10-25T16:46:15.645Z,101425.94
2022-10-25T16:48:42.089Z,101432.25
2022-10-25T16:51:15.640Z,101436.88
2022-10-25T16:53:42.667Z,101437.72
2022-10-25T16:56:11.709Z,101431.41
2022-10-25T16:58:39.257Z,101427.84
2022-10-25T17:01:22.546Z,101433.09
2022-10-25T17:03:49.651Z,101439.59
2022-10-25T17:06:36.053Z,101438.75
2022-10-25T17:09:02.729Z,101442.34
2022-10-25T17:11:29.071Z,101443.19
2022-10-25T17:13:55.530Z,101449.66
2022-10-25T17:16:21.917Z,101450.53
2022-10-25T17:18:48.387Z,101453.25
2022-10-25T17:21:15.840Z,101448.63
2022-10-25T17:23:42.593Z,101452.22
2022-10-25T17:26:11.486Z,101455.78
2022-10-25T17:28:43.007Z,101455.78
2022-10-25T17:31:12.247Z,101453.25
2022-10-25T17:33:38.732Z,101448.63
2022-10-25T17:36:06.520Z,101449.47
2022-10-25T17:38:33.012Z,101452.41
2022-10-25T17:40:59.546Z,101458.72
2022-10-25T17:43:26.010Z,101456.81
2022-10-25T17:45:52.747Z,101459.75
2022-10-25T17:48:19.418Z,101460.59
2022-10-25T17:50:46.114Z,101457.84
2022-10-25T17:53:12.570Z,101460.59
2022-10-25T17:55:41.126Z,101476.97
2022-10-25T17:58:07.810Z,101472.50
2022-10-25T18:00:35.596Z,101476.97
2022-10-25T18:03:04.025Z,101476.97
2022-10-25T18:05:30.476Z,101485.31
2022-10-25T18:07:56.859Z,101478.34
2022-10-25T18:10:23.204Z,101491.63
2022-10-25T18:12:50.223Z,101490.63
2022-10-25T18:15:17.065Z,101490.63
2022-10-25T18:17:46.465Z,101489.78
2022-10-25T18:20:13.644Z,101488.88
2022-10-25T18:22:42.012Z,101487.03
2022-10-25T18:25:08.998Z,101485.31
2022-10-25T18:27:35.683Z,101490.63
2022-10-25T18:30:02.364Z,101495.22
2022-10-25T18:32:33.586Z,101490.97
2022-10-25T18:35:02.789Z,101494.53
2022-10-25T18:37:29.358Z,101490.97
2022-10-25T18:39:55.953Z,101494.53
2022-10-25T18:42:22.359Z,101497.28
2022-10-25T18:44:48.857Z,101499.16
2022-10-25T18:47:15.286Z,101495.38
2022-10-25T18:49:41.814Z,101495.38
2022-10-25T18:52:09.193Z,101493.69
2022-10-25T18:54:35.619Z,101497.28
2022-10-25T18:57:02.042Z,101497.09
2022-10-25T18:59:28.561Z,101494.53
2022-10-25T19:01:55.127Z,101499.16
2022-10-25T19:04:21.733Z,101497.47
2022-10-25T19:06:48.206Z,101511.75
2022-10-25T19:09:14.851Z,101508.19
2022-10-25T19:11:41.352Z,101510.91
2022-10-25T19:14:07.778Z,101512.63
2022-10-25T19:16:35.944Z,101501.88
2022-10-25T19:19:03.627Z,101510.06
2022-10-25T19:21:30.112Z,101514.69
2022-10-25T19:23:57.072Z,101514.69
2022-10-25T19:26:23.562Z,101509.22
2022-10-25T19:28:55.420Z,101513.66
2022-10-25T19:31:21.829Z,101511.97
2022-10-25T19:33:49.135Z,101514.00
2022-10-25T19:36:16.384Z,101513.00
2022-10-25T19:38:44.953Z,101520.16
2022-10-25T19:41:13.894Z,101521.19
2022-10-25T19:43:40.252Z,101523.06
2022-10-25T19:46:07.335Z,101518.44
2022-10-25T19:48:34.379Z,101515.03
2022-10-25T19:51:05.223Z,101527.47
2022-10-25T19:53:31.774Z,101522.88
2022-10-25T19:55:59.301Z,101516.72
2022-10-25T19:58:26.236Z,101534.13
2022-10-25T20:01:03.288Z,101525.94
2022-10-25T20:03:29.847Z,101532.63
2022-10-25T20:05:57.591Z,101537.59
2022-10-25T20:08:24.076Z,101533.81
2022-10-25T20:10:50.448Z,101532.97
2022-10-25T20:13:17.750Z,101527.69
2022-10-25T20:15:50.251Z,101533.13
2022-10-25T20:18:17.577Z,101523.44
2022-10-25T20:20:44.415Z,101525.31
2022-10-25T20:23:11.002Z,101535.38
2022-10-25T20:25:37.382Z,101530.09
2022-10-25T20:28:05.911Z,101533.00
2022-10-25T20:30:34.795Z,101538.63
2022-10-25T20:33:02.138Z,101528.72
2022-10-25T20:35:28.654Z,101536.25
2022-10-25T20:37:55.160Z,101533.69
2022-10-25T20:40:21.661Z,101541.88
2022-10-25T20:42:48.060Z,101535.56
2022-10-25T20:45:14.525Z,101546.47
2022-10-25T20:47:41.063Z,101543.75
2022-10-25T20:50:07.653Z,101551.94
2022-10-25T20:52:34.720Z,101554.84
2022-10-25T20:55:01.212Z,101567.28
2022-10-25T20:57:27.666Z,101562.31
2022-10-25T20:59:54.111Z,101556.56
2022-10-25T21:02:20.890Z,101563.03
2022-10-25T21:04:53.858Z,101571.03
2022-10-25T21:07:20.687Z,101570.19
2022-10-25T21:09:49.415Z,101571.22
2022-10-25T21:12:16.091Z,101569.69
2022-10-25T21:14:42.672Z,101563.38
2022-10-25T21:17:09.070Z,101570.72
2022-10-25T21:19:35.575Z,101566.44
2022-10-25T21:22:01.966Z,101581.97
2022-10-25T21:24:28.411Z,101576.50
2022-10-25T21:26:54.865Z,101584.69
2022-10-25T21:29:21.220Z,101587.63
2022-10-25T21:31:48.219Z,101585.06
2022-10-25T21:34:14.694Z,101581.13
2022-10-25T21:36:41.384Z,101580.28
2022-10-25T21:39:07.813Z,101584.69
2022-10-25T21:41:34.253Z,101581.97
2022-10-25T21:44:00.682Z,101580.97
2022-10-25T21:46:27.882Z,101577.22
2022-10-25T21:48:54.584Z,101581.81
2022-10-25T21:51:21.742Z,101576.19
2022-10-25T21:53:48.469Z,101568.34
2022-10-25T21:56:16.207Z,101574.63
2022-10-25T21:58:43.724Z,101579.25
2022-10-25T22:01:12.326Z,101580.09
2022-10-25T22:03:39.336Z,101586.59
2022-10-25T22:06:07.015Z,101581.31
2022-10-25T22:08:33.640Z,101585.72
2022-10-25T22:11:01.555Z,101579.44
2022-10-25T22:13:28.360Z,101580.47
2022-10-25T22:15:55.813Z,101585.06
2022-10-25T22:18:22.155Z,101589.16
2022-10-25T22:20:58.957Z,101593.59
2022-10-25T22:23:26.583Z,101584.38
2022-10-25T22:25:53.011Z,101585.41
2022-10-25T22:28:19.436Z,101580.78
2022-10-25T22:30:46.095Z,101581.44
2022-10-25T22:33:12.461Z,101578.91
2022-10-25T22:35:38.980Z,101591.50
2022-10-25T22:38:05.390Z,101587.78
2022-10-25T22:40:31.753Z,101592.38
2022-10-25T22:42:58.091Z,101593.25
2022-10-25T22:45:24.543Z,101594.25
2022-10-25T22:47:51.406Z,101594.94
2022-10-25T22:50:17.961Z,101595.97
2022-10-25T22:55:11.593Z,101595.59
2022-10-25T22:57:38.030Z,101594.94
2022-10-25T23:00:04.598Z,101590.31
2022-10-25T23:02:30.917Z,101600.41
2022-10-25T23:04:57.239Z,101597.66
2022-10-25T23:07:23.599Z,101597.81
2022-10-25T23:09:49.944Z,101604.16
2022-10-25T23:12:16.299Z,101606.00
2022-10-25T23:14:42.638Z,101607.88
2022-10-25T23:17:09.003Z,101609.75
2022-10-25T23:19:35.335Z,101609.75
2022-10-25T23:22:01.705Z,101610.81
2022-10-25T23:24:28.199Z,101608.91
2022-10-25T23:26:54.521Z,101608.91
2022-10-25T23:29:20.995Z,101618.97
2022-10-25T23:31:47.424Z,101617.09
2022-10-25T23:34:13.853Z,101610.81
2022-10-25T23:36:40.493Z,101612.69
2022-10-25T23:39:07.739Z,101616.44
2022-10-25T23:41:34.411Z,101606.53
2022-10-25T23:44:00.934Z,101614.72
2022-10-25T23:46:27.293Z,101617.28
2022-10-25T23:48:53.644Z,101608.06
2022-10-25T23:51:20.456Z,101616.25
2022-10-25T23:53:47.800Z,101609.09
2022-10-25T23:56:14.322Z,101604.50
2022-10-25T23:58:40.888Z,101606.53
